الصفحة الرئيسية
METAR-TAF:

METAR-TAF

مطار :

نوميا, نيو كاليدونيا

دائرة عرض: 22-15-30S, خط طول: 166-28-22E, ارتفاع: 3 متر

METAR: مفقودة

زمن: 05:50 (18:50 UTC)

توقعات

تاريخ ووقت الإصدار 1ساعة و 50 دقيقة قبل الساعة 17:00UTC
التوقعات صالحة من01 الساعة 18 UTC إلى 02 الساعة 18 UTC
ريح 10 عقدة من الشرق
الرؤية 10 كم أو أكثر
غيوم قليلة على ارتفاع 3000 قدم
غيوم مفككة على ارتفاع 4200 قدم
أصبح
من 01 الساعة 22 UTC إلى 01 الساعة 24 UTC
ريح 20 عقدة من الجنوب الشرقي
نظرية الاحتمالات 30% :
مؤقت
من 02 الساعة 00 UTC إلى 02 الساعة 06 UTC
زخات من المطر
أصبح
من 02 الساعة 08 UTC إلى 02 الساعة 10 UTC
ريح 10 عقدة من الشرق
نظرية الاحتمالات 40% :
مؤقت
من 02 الساعة 14 UTC إلى 02 الساعة 18 UTC
غيوم مفككة على ارتفاع 1400 قدم
زخات من المطر

TAF: NWWM 011700Z 0118/0218 08010KT 9999 FEW030 BKN042 BECMG 0122/0124 13020KT PROB30 TEMPO 0200/0206 SHRA BECMG 0208/0210 08010KT PROB40 TEMPO 0214/0218 SHRA BKN014

أرصاد الطقس والتوقعات من أكثر من 4000 مطار (تقارير الطقس للمطار METAR والتنبؤ بالطقس بالمطارTAF).

المحطات المتاحة هي النقط الصفراء والحمراء على الخريطة.

حرك المؤشر فوق النقطة لمعرفة اسم المحطة.

ثم انقر لمعرفة أرصاد وتوقعات الطقس.

لتغيير الخارطة: اضغط على الأزرار الخضراء مع رمز الصليب الأسود للتكبير. على الزر الأخضر مع شرطة للتصغير، أو على الأسهم الخضراء للخرائط المجاورة.


METAR-TAF: